Kathleen, Georgia
Current Conditions -  °F | °C
As of 6:35 AM on Tuesday 21 Oct 2014 (Local Time) from KPXE Reporting Station
Clear Clear  
Wind Chill: 52°   Ceiling: Unl
Heat Index: 52°   Visibility: 7mi
Dew Point: 49°   Wind: 0mph
Humidity: 91%   Direction: NA
Pressure: 30"   Gusts: NA
Location:  32.5°N, 83.61°W
Report Text: KPXE 211035Z AUTO 00000KT 7SM CLR 11/10 A3000 RMK AO2 T01090095
Loading
Personal Weather Stations






























Interactive Weather Map
Tropical Storm Tracking
New forecast layout! Learn more

10-Day Weather Forecast

Advertisements
Track Severe Weather on mobile